»·PEaware :: N1836S KAVX-MMML

N1836S :: KAVX-MMML

FLIGHT INFORMATION

Flight Status: Arrived
Operator: Privately registered:
United States
More flights under this callsign
Pilot: Sergio L. (2230)
Aircraft: CESSNA 210 CENTURION
(C210)
More flights by this aircraft type
Origin: KAVX Catalina
United States
Destination: MMML Gen Rodolfo Sanchez Taboada
Mexico
More flights between these airports :: More routes between these airports
Route: VFR
File this flight plan on PilotEdge
Remarks:
Altitude:
(Current/Filed)
5,500ft
Speed:
(Current/Filed)
130kts
Departed: 18-Sep-13 12:36 PM
Arrived: 18-Sep-13 02:00 PM
Distance/Time
Traveled:
166nm/1:24
Distance/Time
To Go:
Arrived

Flight Plot

Page will automatically refresh every two minutes.


Map Options




Map Legend


Flown Route
Filed Route
Departure Airport
Arrival Airport
Navaid (VOR, NDB)
Fix

Horizontal Profiles

Position Reports

Time Latitude Longitude Heading Altitude Ground
Speed
18-Sep-13 12:29 33.402303 -118.419839 339 1606ft 0kts
18-Sep-13 12:30 33.402303 -118.419839 339 1606ft 0kts
18-Sep-13 12:31 33.402303 -118.419839 339 1606ft 0kts
18-Sep-13 12:32 33.402303 -118.419839 339 1606ft 0kts
18-Sep-13 12:33 33.402303 -118.419839 339 1606ft 0kts
18-Sep-13 12:34 33.408848 -118.409445 51 1717ft 104kts
18-Sep-13 12:35 33.420639 -118.378090 78 3164ft 116kts
18-Sep-13 12:36 33.414644 -118.341654 103 4641ft 122kts
18-Sep-13 12:37 33.396305 -118.303100 112 4951ft 179kts
18-Sep-13 12:38 33.377501 -118.248295 111 5080ft 188kts
18-Sep-13 12:39 33.357541 -118.189694 111 5121ft 191kts
18-Sep-13 12:40 33.337443 -118.130719 111 5088ft 194kts
18-Sep-13 12:41 33.317273 -118.071592 111 5137ft 192kts
18-Sep-13 12:42 33.297045 -118.012333 111 5140ft 192kts
18-Sep-13 12:43 33.275025 -117.955265 114 5050ft 185kts
18-Sep-13 12:44 33.252859 -117.899651 115 5010ft 182kts
18-Sep-13 12:45 33.231496 -117.844887 114 4997ft 181kts
18-Sep-13 12:46 33.210421 -117.790811 114 4994ft 181kts
18-Sep-13 12:47 33.189146 -117.736273 114 4993ft 181kts
18-Sep-13 12:48 33.167010 -117.682527 133 4945ft 184kts
18-Sep-13 12:49 33.123640 -117.653940 158 4986ft 180kts
18-Sep-13 12:50 33.077046 -117.632452 158 5143ft 173kts
18-Sep-13 12:51 33.036379 -117.606275 146 5673ft 168kts
18-Sep-13 12:52 32.992564 -117.587599 178 5851ft 165kts
18-Sep-13 12:53 33.009737 -117.559271 4 6070ft 176kts
18-Sep-13 12:54 33.047010 -117.529715 52 6513ft 172kts
18-Sep-13 12:55 33.072104 -117.470986 60 5356ft 193kts
18-Sep-13 12:56 33.099946 -117.421092 57 5528ft 181kts
18-Sep-13 12:57 33.124379 -117.369159 81 5533ft 178kts
18-Sep-13 12:58 33.088335 -117.336468 156 5536ft 183kts
18-Sep-13 12:59 33.042006 -117.312462 156 5557ft 180kts
18-Sep-13 13:00 32.996075 -117.290907 160 5678ft 179kts
18-Sep-13 13:01 32.949051 -117.272516 162 5707ft 181kts
18-Sep-13 13:02 32.901008 -117.254338 161 5717ft 182kts
18-Sep-13 13:03 32.853020 -117.236172 161 5720ft 182kts
18-Sep-13 13:04 32.804904 -117.217961 161 5737ft 181kts
18-Sep-13 13:05 32.755679 -117.199267 161 5338ft 191kts
18-Sep-13 13:06 32.703983 -117.179733 161 4225ft 221kts
18-Sep-13 13:07 32.648020 -117.158488 161 3385ft 189kts
18-Sep-13 13:08 32.602717 -117.141341 161 4032ft 173kts
18-Sep-13 13:09 32.554373 -117.123039 161 3459ft 209kts
18-Sep-13 13:10 32.503373 -117.103713 161 3453ft 178kts
18-Sep-13 13:11 32.456656 -117.086043 161 3713ft 179kts
18-Sep-13 13:12 32.416662 -117.070907 161 3759ft 183kts
18-Sep-13 13:13 32.394502 -117.032961 62 4324ft 159kts
18-Sep-13 13:14 32.415339 -116.985705 68 4975ft 167kts
18-Sep-13 13:15 32.419641 -116.931167 88 5591ft 167kts
18-Sep-13 13:16 32.420319 -116.874457 88 6008ft 173kts
18-Sep-13 13:17 32.421285 -116.815053 88 5872ft 170kts
18-Sep-13 13:18 32.422179 -116.758811 89 5881ft 166kts
18-Sep-13 13:19 32.422880 -116.709151 88 5823ft 139kts
18-Sep-13 13:20 32.423526 -116.664222 88 5825ft 133kts
18-Sep-13 13:21 32.424135 -116.620592 88 5825ft 131kts
18-Sep-13 13:22 32.424726 -116.577378 88 5825ft 131kts
18-Sep-13 13:23 32.420423 -116.534819 99 5825ft 131kts
18-Sep-13 13:24 32.414672 -116.492401 98 5825ft 131kts
18-Sep-13 13:25 32.408943 -116.449733 98 5825ft 131kts
18-Sep-13 13:26 32.403264 -116.407498 98 5825ft 131kts
18-Sep-13 13:27 32.397572 -116.365238 98 5825ft 131kts
18-Sep-13 13:28 32.391895 -116.323148 98 5825ft 131kts
18-Sep-13 13:29 32.386155 -116.280655 98 5825ft 131kts
18-Sep-13 13:30 32.380413 -116.238214 98 5825ft 131kts
18-Sep-13 13:31 32.374724 -116.196232 98 5825ft 131kts
18-Sep-13 13:32 32.368996 -116.154024 98 5825ft 131kts
18-Sep-13 13:33 32.363221 -116.111543 98 5825ft 131kts
18-Sep-13 13:34 32.357509 -116.069583 98 5825ft 131kts
18-Sep-13 13:35 32.351749 -116.027341 98 5825ft 131kts
18-Sep-13 13:36 32.345970 -115.985021 98 5825ft 131kts
18-Sep-13 13:37 32.340179 -115.942682 98 5825ft 131kts
18-Sep-13 13:38 32.336392 -115.900271 88 5826ft 131kts
18-Sep-13 13:39 32.339091 -115.857715 85 5825ft 131kts
18-Sep-13 13:40 32.341865 -115.815442 85 5825ft 131kts
18-Sep-13 13:41 32.346754 -115.773701 52 5829ft 130kts
18-Sep-13 13:42 32.369659 -115.741066 49 5825ft 131kts
18-Sep-13 13:43 32.395933 -115.712000 38 5825ft 131kts
18-Sep-13 13:44 32.423849 -115.685155 38 5825ft 131kts
18-Sep-13 13:45 32.451795 -115.658252 39 5825ft 131kts
18-Sep-13 13:46 32.477466 -115.628265 44 5825ft 131kts
18-Sep-13 13:47 32.501231 -115.596064 55 5825ft 131kts
18-Sep-13 13:48 32.525350 -115.564131 45 5825ft 131kts
18-Sep-13 13:49 32.545366 -115.529075 69 5825ft 131kts
18-Sep-13 13:50 32.557601 -115.489538 69 5825ft 131kts
18-Sep-13 13:51 32.570311 -115.446715 70 5222ft 162kts
18-Sep-13 13:52 32.585310 -115.395524 70 4369ft 166kts
18-Sep-13 13:53 32.600013 -115.345182 70 3666ft 165kts
18-Sep-13 13:54 32.614724 -115.294631 70 2901ft 159kts
18-Sep-13 13:55 32.625018 -115.244835 112 536ft 143kts
18-Sep-13 13:56 32.623362 -115.217279 356 693ft 70kts
18-Sep-13 13:57 32.630025 -115.240916 300 78ft 49kts
18-Sep-13 13:58 32.628693 -115.246160 27 78ft 1kts
18-Sep-13 13:59 32.628699 -115.246156 26 78ft 0kts

Navigation Log

Ident Type
Flight plan parsing failed, navigation log unavailable